Weather at Washington Hospital Heliport [CLOSED]

Public forecast

Using degrees Fahrenheit for public forecast. Weather courtesy of forecast.io.

Closest aviation weather report (METAR) to Washington Hospital Heliport

Closest report is Palo Alto Airport of Santa Clara County, 8.7 nm (16.1 km) SW.

2024/05/24 19:47 (retrieved 46 minutes ago)

KPAO 241947Z 28010G17KT 10SM BKN025 15/08 A2995

Closest aviation forecast (TAF) to Washington Hospital Heliport

Closest forecast is Livermore Municipal Airport, 11.1 nm (20.6 km) NE.

2024/05/24 18:36 (retrieved 2 hours ago)

TAF KLVK 241735Z 2418/2518 25013G23KT P6SM FEW250 FM250800 23009KT P6SM SCT010 OVC020